»·PEaware :: ASA565 KPHX-KLAS

ASA565 :: KPHX-KLAS

FLIGHT INFORMATION

Flight Status: Arrived
Operator:
Alaska Airlines
More flights by this operator :: More flights under this callsign
Pilot: Ruben R. (12247)
Aircraft: Unknown
(738)
More flights by this aircraft type
Origin: KPHX Phoenix Sky Harbor Intl
United States
Destination: KLAS McCarran Intl
United States
More flights between these airports :: More routes between these airports
Route: +MAYSA5 SISIE IGM TYSSN4
File this flight plan on PilotEdge
Remarks: theMach3Lounge / twitch.tv
Altitude:
(Current/Filed)
23,000ft
Speed:
(Current/Filed)
450kts
Departed: 21-Jun-17 10:06 PM
Arrived: 21-Jun-17 10:53 PM
Distance/Time
Traveled:
222nm/0:47
Distance/Time
To Go:
Arrived

Flight Plot

Page will automatically refresh every two minutes.


Map Options




Map Legend


Flown Route
Filed Route
Departure Airport
Arrival Airport
Navaid (VOR, NDB)
Fix

Horizontal Profiles

Position Reports

Time Latitude Longitude Heading Altitude Ground
Speed
21-Jun-17 21:48 33.434383 -112.013260 288 1125ft 0kts
21-Jun-17 21:49 33.434383 -112.013260 288 1125ft 0kts
21-Jun-17 21:51 33.434383 -112.013260 288 1125ft 0kts
21-Jun-17 21:52 33.434383 -112.013260 288 1125ft 0kts
21-Jun-17 21:53 33.434383 -112.013260 288 1125ft 0kts
21-Jun-17 21:54 33.434383 -112.013260 288 1125ft 0kts
21-Jun-17 21:55 33.434383 -112.013260 288 1125ft 0kts
21-Jun-17 21:56 33.434308 -112.012973 285 1125ft 0kts
21-Jun-17 21:57 33.434388 -112.012509 183 1125ft 0kts
21-Jun-17 21:58 33.434388 -112.012509 183 1125ft 0kts
21-Jun-17 21:59 33.434388 -112.012509 183 1125ft 0kts
21-Jun-17 22:00 33.434388 -112.012509 183 1125ft 0kts
21-Jun-17 22:01 33.433670 -112.012298 170 1126ft 9kts
21-Jun-17 22:02 33.432166 -112.009170 89 1130ft 13kts
21-Jun-17 22:03 33.432170 -112.005810 89 1133ft 8kts
21-Jun-17 22:04 33.432140 -112.000784 89 1119ft 22kts
21-Jun-17 22:05 33.432119 -111.995443 88 1116ft 6kts
21-Jun-17 22:06 33.432063 -111.993718 122 1117ft 0kts
21-Jun-17 22:07 33.432015 -111.993637 128 1116ft 5kts
21-Jun-17 22:08 33.431032 -111.995548 269 1116ft 18kts
21-Jun-17 22:09 33.431181 -112.034981 268 1673ft 175kts
21-Jun-17 22:10 33.452401 -112.088433 314 3527ft 219kts
21-Jun-17 22:11 33.497314 -112.138478 316 5415ft 282kts
21-Jun-17 22:12 33.560463 -112.181913 341 7991ft 291kts
21-Jun-17 22:13 33.638868 -112.208311 342 11092ft 301kts
21-Jun-17 22:14 33.724592 -112.236097 343 13823ft 344kts
21-Jun-17 22:15 33.816821 -112.265911 343 17191ft 357kts
21-Jun-17 22:16 33.913731 -112.297345 343 20193ft 374kts
21-Jun-17 22:17 34.014186 -112.330892 336 20806ft 383kts
21-Jun-17 22:18 34.096637 -112.404345 319 20722ft 372kts
21-Jun-17 22:19 34.169854 -112.477442 319 21482ft 383kts
21-Jun-17 22:20 34.247707 -112.555868 319 23709ft 382kts
21-Jun-17 22:21 34.329454 -112.638529 319 24061ft 389kts
21-Jun-17 22:22 34.409789 -112.719973 318 24064ft 389kts
21-Jun-17 22:23 34.491062 -112.802582 318 24064ft 389kts
21-Jun-17 22:24 34.570834 -112.884097 316 24063ft 389kts
21-Jun-17 22:25 34.650386 -112.970836 316 24064ft 390kts
21-Jun-17 22:26 34.730273 -113.058199 316 24060ft 391kts
21-Jun-17 22:27 34.810235 -113.145905 316 24007ft 391kts
21-Jun-17 22:28 34.890454 -113.234103 316 23953ft 391kts
21-Jun-17 22:29 34.970146 -113.322024 314 23915ft 390kts
21-Jun-17 22:30 35.027951 -113.431550 298 23917ft 387kts
21-Jun-17 22:31 35.081162 -113.545350 297 23917ft 387kts
21-Jun-17 22:32 35.131761 -113.654524 297 23915ft 387kts
21-Jun-17 22:33 35.183621 -113.766852 297 23917ft 387kts
21-Jun-17 22:34 35.233103 -113.874373 297 23917ft 387kts
21-Jun-17 22:35 35.301331 -113.970600 319 23164ft 381kts
21-Jun-17 22:36 35.384144 -114.048797 320 20488ft 374kts
21-Jun-17 22:37 35.458133 -114.117875 320 18947ft 368kts
21-Jun-17 22:38 35.536043 -114.190452 320 16898ft 356kts
21-Jun-17 22:39 35.612875 -114.262172 320 14637ft 344kts
21-Jun-17 22:40 35.687397 -114.331915 320 12411ft 334kts
21-Jun-17 22:41 35.764463 -114.392739 335 12052ft 337kts
21-Jun-17 22:42 35.850753 -114.433998 336 11408ft 329kts
21-Jun-17 22:43 35.932661 -114.472411 336 10634ft 278kts
21-Jun-17 22:44 35.999855 -114.503989 336 10029ft 263kts
21-Jun-17 22:45 36.042276 -114.565831 282 10026ft 248kts
21-Jun-17 22:46 36.058768 -114.648156 280 10031ft 249kts
21-Jun-17 22:47 36.075450 -114.728586 297 10015ft 250kts
21-Jun-17 22:48 36.113586 -114.799066 301 9883ft 245kts
21-Jun-17 22:49 36.145895 -114.870957 272 8410ft 242kts
21-Jun-17 22:50 36.183777 -114.937845 297 7147ft 244kts
21-Jun-17 22:51 36.223953 -115.000907 265 5839ft 235kts
21-Jun-17 22:52 36.186226 -115.057499 221 5211ft 200kts
21-Jun-17 22:53 36.153204 -115.104308 233 3926ft 182kts
21-Jun-17 22:54 36.119081 -115.141632 203 2423ft 138kts
21-Jun-17 22:55 36.084812 -115.161307 205 2136ft 129kts
21-Jun-17 22:56 36.077880 -115.165277 208 2163ft 0kts
21-Jun-17 22:57 36.077880 -115.165278 207 2163ft 0kts

Navigation Log

Ident Type
Flight plan parsing failed, navigation log unavailable